Time;durP1;ratioP1;P1;durP2;ratioP2;P2;SDS_P1;SDS_P2;PMS_P1;PMS_P2;Temp;Humidity;BMP_temperature;BMP_pressure;BME280_temperature;BME280_humidity;BME280_pressure;Samples;Min_cycle;Max_cycle;Signal;HPM_P1;HPM_P2
2023/04/14 00:00:31;;;;;;;11.18;3.00;;;5.60;99.90;;;;;;4993266;28;20058;-81
2023/04/14 00:03:18;;;;;;;13.95;2.50;;;5.50;99.90;;;;;;4993472;28;20116;-81
2023/04/14 00:06:04;;;;;;;9.95;2.65;;;5.40;99.90;;;;;;4993272;28;20046;-81
2023/04/14 00:08:51;;;;;;;12.65;2.67;;;5.40;99.90;;;;;;4993356;28;20200;-80
2023/04/14 00:11:37;;;;;;;10.07;2.45;;;5.30;99.90;;;;;;4991846;28;20413;-81
2023/04/14 00:14:23;;;;;;;11.10;2.80;;;5.30;99.90;;;;;;4992188;28;20057;-82
2023/04/14 00:17:09;;;;;;;24.80;5.45;;;5.30;99.90;;;;;;4991556;28;20050;-81
2023/04/14 00:19:55;;;;;;;10.30;2.92;;;5.30;99.90;;;;;;5010909;28;20065;-81
2023/04/14 00:22:41;;;;;;;11.82;2.90;;;5.20;99.90;;;;;;4991484;28;20481;-81
2023/04/14 00:25:27;;;;;;;21.25;3.88;;;5.20;99.90;;;;;;5010398;28;20577;-81
2023/04/14 00:28:13;;;;;;;14.13;2.85;;;5.10;99.90;;;;;;4996100;28;20560;-82
2023/04/14 00:30:59;;;;;;;15.60;2.72;;;5.10;99.90;;;;;;4993242;28;20141;-82
2023/04/14 00:33:45;;;;;;;15.88;2.90;;;5.10;99.90;;;;;;4979668;28;20058;-81
2023/04/14 00:36:31;;;;;;;16.77;2.67;;;5.10;99.90;;;;;;5008235;28;20065;-82
2023/04/14 00:39:17;;;;;;;12.55;2.90;;;5.10;99.90;;;;;;4992140;28;20064;-81
2023/04/14 00:42:03;;;;;;;13.35;3.53;;;5.10;99.90;;;;;;4991736;28;20058;-81
2023/04/14 00:44:50;;;;;;;13.02;3.25;;;5.00;99.90;;;;;;4993268;28;20045;-81
2023/04/14 00:47:38;;;;;;;19.67;4.85;;;5.00;99.90;;;;;;4991806;28;20120;-81
2023/04/14 00:50:24;;;;;;;16.75;3.78;;;5.00;99.90;;;;;;5009880;28;20112;-81
2023/04/14 00:53:12;;;;;;;12.95;3.83;;;5.00;99.90;;;;;;4980147;28;20104;-81
2023/04/14 00:55:58;;;;;;;11.27;2.72;;;5.00;99.90;;;;;;5010451;28;20606;-81
2023/04/14 00:58:45;;;;;;;13.70;2.65;;;5.00;99.90;;;;;;4979187;28;20045;-81
2023/04/14 01:01:35;;;;;;;12.75;3.97;;;5.00;99.90;;;;;;4991246;28;20085;-81
2023/04/14 01:04:21;;;;;;;12.82;3.67;;;5.00;99.90;;;;;;4992498;28;20045;-81
2023/04/14 01:07:07;;;;;;;15.73;3.30;;;5.00;99.90;;;;;;4992771;28;20513;-81
2023/04/14 01:09:56;;;;;;;15.35;3.45;;;4.90;99.90;;;;;;4994333;28;20409;-81
2023/04/14 01:12:55;;;;;;;14.20;3.95;;;4.90;99.90;;;;;;5012457;28;20058;-81
2023/04/14 01:15:56;;;;;;;14.27;3.30;;;4.90;99.90;;;;;;4997524;28;20054;-81
2023/04/14 01:19:08;;;;;;;16.58;2.88;;;4.90;99.90;;;;;;5013228;28;20056;-79
2023/04/14 01:22:00;;;;;;;15.65;2.67;;;4.80;99.90;;;;;;4994377;28;20112;-81
2023/04/14 01:25:16;;;;;;;17.35;2.78;;;4.80;99.90;;;;;;4995249;28;20585;-81
2023/04/14 01:28:41;;;;;;;20.05;2.95;;;4.90;99.90;;;;;;4982657;28;20049;-81
2023/04/14 01:31:37;;;;;;;12.98;3.17;;;4.80;99.90;;;;;;4982372;28;20068;-81
2023/04/14 01:34:38;;;;;;;10.65;2.47;;;4.80;99.90;;;;;;4995561;28;20130;-80
2023/04/14 01:37:29;;;;;;;14.70;2.97;;;4.70;99.90;;;;;;4994919;28;20064;-79
2023/04/14 01:40:18;;;;;;;15.27;2.67;;;4.60;99.90;;;;;;4995921;28;20164;-80
2023/04/14 01:43:09;;;;;;;9.77;2.80;;;4.60;99.90;;;;;;4994733;28;20096;-81
2023/04/14 01:45:59;;;;;;;23.40;4.03;;;4.60;99.90;;;;;;4981818;28;20050;-81
2023/04/14 01:48:46;;;;;;;12.75;3.03;;;4.60;99.90;;;;;;4993961;28;20060;-81
2023/04/14 01:51:33;;;;;;;14.80;3.72;;;4.50;99.90;;;;;;4995084;28;20046;-81
2023/04/14 01:54:21;;;;;;;12.30;2.67;;;4.50;99.90;;;;;;5012241;28;20042;-81
2023/04/14 01:57:09;;;;;;;10.55;2.47;;;4.40;99.90;;;;;;5011510;28;20413;-80
2023/04/14 01:59:58;;;;;;;8.30;2.88;;;4.30;99.90;;;;;;4981904;28;20490;-81
2023/04/14 02:02:46;;;;;;;12.30;3.05;;;4.30;99.90;;;;;;4993910;28;20057;-82
2023/04/14 02:05:35;;;;;;;11.82;2.40;;;4.20;99.90;;;;;;5009972;28;20049;-82
2023/04/14 02:08:23;;;;;;;13.45;2.90;;;4.20;99.90;;;;;;4995437;28;20064;-80
2023/04/14 02:11:12;;;;;;;10.15;2.80;;;4.10;99.90;;;;;;5012167;28;20556;-81
2023/04/14 02:13:59;;;;;;;7.72;2.60;;;4.10;99.90;;;;;;4994584;28;20056;-81
2023/04/14 02:16:48;;;;;;;9.40;3.35;;;4.10;99.90;;;;;;4994147;28;20057;-81
2023/04/14 02:19:35;;;;;;;11.00;3.38;;;4.00;99.90;;;;;;4994405;28;20145;-81
2023/04/14 02:22:21;;;;;;;11.88;2.60;;;4.00;99.90;;;;;;4994617;28;20191;-82
2023/04/14 02:25:07;;;;;;;12.85;2.58;;;4.00;99.90;;;;;;4995437;28;20144;-81
2023/04/14 02:27:57;;;;;;;13.85;3.50;;;4.00;99.90;;;;;;4981926;28;20062;-82
2023/04/14 02:30:47;;;;;;;9.80;2.45;;;4.00;99.90;;;;;;4994396;28;20141;-81
2023/04/14 02:33:36;;;;;;;16.73;2.95;;;4.00;99.90;;;;;;5012201;28;20140;-81
2023/04/14 02:36:46;;;;;;;14.18;4.22;;;4.00;99.90;;;;;;5010027;28;20045;-81
2023/04/14 02:39:41;;;;;;;7.60;2.53;;;4.10;99.90;;;;;;4993990;28;20065;-81
2023/04/14 02:42:29;;;;;;;14.67;2.87;;;4.20;99.90;;;;;;4994541;28;20081;-81
2023/04/14 02:45:22;;;;;;;18.52;4.70;;;4.30;99.90;;;;;;4994619;28;20304;-81
2023/04/14 02:48:13;;;;;;;9.45;2.45;;;4.30;99.90;;;;;;4993186;28;20047;-81
2023/04/14 02:51:02;;;;;;;10.82;3.28;;;4.40;99.90;;;;;;4979413;28;20144;-80
2023/04/14 02:53:49;;;;;;;13.80;2.72;;;4.40;99.90;;;;;;4992801;28;20054;-81
2023/04/14 02:56:35;;;;;;;13.52;2.88;;;4.40;99.90;;;;;;5010856;28;20093;-80
2023/04/14 02:59:23;;;;;;;10.38;2.70;;;4.40;99.90;;;;;;5010759;28;20446;-81
2023/04/14 03:02:10;;;;;;;11.48;3.08;;;4.40;99.90;;;;;;5008789;28;20502;-79
2023/04/14 03:04:57;;;;;;;15.82;3.20;;;4.30;99.90;;;;;;4993228;28;20557;-80
2023/04/14 03:07:45;;;;;;;12.27;2.40;;;4.30;99.90;;;;;;4992419;28;20112;-80
2023/04/14 03:10:32;;;;;;;20.85;4.55;;;4.30;99.90;;;;;;4993249;28;20521;-80
2023/04/14 03:13:20;;;;;;;14.70;3.28;;;4.30;99.90;;;;;;5010203;28;20053;-80
2023/04/14 03:16:08;;;;;;;18.63;3.22;;;4.20;99.90;;;;;;5009948;28;20059;-80
2023/04/14 03:18:55;;;;;;;9.82;2.83;;;4.20;99.90;;;;;;4980597;28;20057;-80
2023/04/14 03:21:41;;;;;;;11.07;2.63;;;4.20;99.90;;;;;;4992395;28;20068;-81
2023/04/14 03:24:30;;;;;;;8.93;2.75;;;4.10;99.90;;;;;;5010952;28;20395;-80
2023/04/14 03:27:21;;;;;;;10.20;2.88;;;4.10;99.90;;;;;;4993325;28;20555;-80
2023/04/14 03:30:11;;;;;;;13.13;3.00;;;4.00;99.90;;;;;;4993681;28;20066;-80
2023/04/14 03:33:10;;;;;;;12.50;3.55;;;4.00;99.90;;;;;;4979972;28;20140;-81
2023/04/14 03:35:58;;;;;;;12.07;2.65;;;3.90;99.90;;;;;;4979863;28;20049;-81
2023/04/14 03:38:48;;;;;;;12.70;2.85;;;3.90;99.90;;;;;;4992937;28;20050;-81
2023/04/14 03:41:36;;;;;;;11.85;2.90;;;3.80;99.90;;;;;;5010224;28;20050;-80
2023/04/14 03:44:26;;;;;;;18.33;3.25;;;3.80;99.90;;;;;;4992640;28;20140;-80
2023/04/14 03:47:13;;;;;;;7.28;2.40;;;3.70;99.90;;;;;;4993397;28;20053;-81
2023/04/14 03:50:01;;;;;;;7.35;3.50;;;3.70;99.90;;;;;;4993659;28;20089;-81
2023/04/14 03:52:49;;;;;;;12.80;2.70;;;3.70;99.90;;;;;;4993354;28;20104;-82
2023/04/14 03:55:36;;;;;;;11.13;2.95;;;3.60;99.90;;;;;;4979829;28;20054;-82
2023/04/14 03:58:24;;;;;;;11.80;3.10;;;3.50;99.90;;;;;;4980154;28;20096;-81
2023/04/14 04:01:11;;;;;;;9.90;3.20;;;3.50;99.90;;;;;;5009728;28;20072;-81
2023/04/14 04:04:01;;;;;;;12.95;3.05;;;3.50;99.90;;;;;;5009644;28;20120;-81
2023/04/14 04:06:48;;;;;;;14.48;3.33;;;3.50;99.90;;;;;;4993494;28;20046;-81
2023/04/14 04:09:36;;;;;;;13.32;5.10;;;3.40;99.90;;;;;;4980591;28;20507;-81
2023/04/14 04:12:24;;;;;;;12.95;2.80;;;3.40;99.90;;;;;;5010542;28;20111;-81
2023/04/14 04:15:11;;;;;;;12.68;3.20;;;3.30;99.90;;;;;;4992841;28;20077;-81
2023/04/14 04:17:58;;;;;;;14.75;2.67;;;3.30;99.90;;;;;;4992721;28;20068;-81
2023/04/14 04:20:45;;;;;;;9.77;3.25;;;3.30;99.90;;;;;;4992628;28;20572;-81
2023/04/14 04:23:33;;;;;;;11.43;2.60;;;3.30;99.90;;;;;;4991733;28;20054;-81
2023/04/14 04:26:19;;;;;;;8.43;2.95;;;3.30;99.90;;;;;;4991067;28;20058;-81
2023/04/14 04:29:05;;;;;;;11.98;2.75;;;3.30;99.90;;;;;;4993260;28;20054;-81
2023/04/14 04:31:52;;;;;;;14.05;3.28;;;3.30;99.90;;;;;;5009217;28;20226;-80
2023/04/14 04:34:38;;;;;;;12.68;2.95;;;3.30;99.90;;;;;;4979619;28;20062;-81
2023/04/14 04:37:27;;;;;;;11.98;3.25;;;3.40;99.90;;;;;;4977954;28;20060;-81
2023/04/14 04:40:13;;;;;;;11.05;2.92;;;3.40;99.90;;;;;;4991698;28;20065;-81
2023/04/14 04:42:59;;;;;;;14.57;4.32;;;3.50;99.90;;;;;;4993046;28;20054;-81
2023/04/14 04:45:57;;;;;;;8.73;3.03;;;3.50;99.90;;;;;;4993321;28;20053;-81
2023/04/14 04:48:43;;;;;;;15.02;3.38;;;3.60;99.90;;;;;;4995486;28;20824;-81
2023/04/14 04:51:30;;;;;;;8.65;2.70;;;3.60;99.90;;;;;;4994988;28;20512;-81
2023/04/14 04:54:16;;;;;;;13.38;3.20;;;3.70;99.90;;;;;;4996465;28;20504;-81
2023/04/14 04:57:02;;;;;;;11.60;3.10;;;3.70;99.90;;;;;;4996011;28;20418;-81
2023/04/14 04:59:48;;;;;;;12.80;4.00;;;3.80;99.90;;;;;;4996644;28;20108;-81
2023/04/14 05:02:34;;;;;;;15.25;2.63;;;3.80;99.90;;;;;;4995383;28;20112;-81
2023/04/14 05:05:20;;;;;;;14.80;4.07;;;3.90;99.90;;;;;;4994941;28;20056;-81
2023/04/14 05:08:07;;;;;;;15.27;3.40;;;4.00;99.90;;;;;;4994946;28;20062;-82
2023/04/14 05:10:53;;;;;;;17.60;4.68;;;4.00;99.90;;;;;;4996473;28;20103;-81
2023/04/14 05:13:39;;;;;;;10.07;2.80;;;3.90;99.90;;;;;;4994377;28;20413;-80
2023/04/14 05:16:27;;;;;;;9.82;3.67;;;3.90;99.90;;;;;;4994640;28;20050;-81
2023/04/14 05:19:12;;;;;;;11.90;4.47;;;3.90;99.90;;;;;;4996235;28;20060;-81
2023/04/14 05:21:59;;;;;;;10.35;3.03;;;3.90;99.90;;;;;;4995284;28;20120;-81
2023/04/14 05:24:49;;;;;;;13.95;4.93;;;3.90;99.90;;;;;;4995274;28;20076;-81
2023/04/14 05:27:35;;;;;;;20.38;4.15;;;3.90;99.90;;;;;;4993951;28;20084;-81
2023/04/14 05:30:21;;;;;;;17.73;3.00;;;4.00;99.90;;;;;;4995937;28;20058;-81
2023/04/14 05:33:07;;;;;;;11.02;2.42;;;4.00;99.90;;;;;;4995405;28;20049;-81
2023/04/14 05:35:53;;;;;;;9.60;2.67;;;4.00;99.90;;;;;;4994095;28;20058;-81
2023/04/14 05:38:40;;;;;;;13.68;3.25;;;4.10;99.90;;;;;;4995871;28;20597;-81
2023/04/14 05:41:26;;;;;;;7.95;2.53;;;4.10;99.90;;;;;;5013679;28;20077;-81
2023/04/14 05:44:12;;;;;;;9.85;2.40;;;4.20;99.90;;;;;;4995772;28;20089;-81
2023/04/14 05:46:58;;;;;;;15.50;3.60;;;4.20;99.90;;;;;;4994539;28;20089;-81
2023/04/14 05:49:44;;;;;;;10.98;2.65;;;4.30;99.90;;;;;;5011387;28;20622;-81
2023/04/14 05:52:30;;;;;;;13.32;2.97;;;4.40;99.90;;;;;;4993605;28;20053;-81
2023/04/14 05:55:16;;;;;;;10.88;3.13;;;4.50;99.90;;;;;;5011980;28;20050;-81
2023/04/14 05:58:02;;;;;;;10.77;3.53;;;4.60;99.90;;;;;;4993398;28;20054;-81
2023/04/14 06:00:48;;;;;;;14.63;3.38;;;4.70;99.90;;;;;;4969885;28;20061;-81
2023/04/14 06:03:36;;;;;;;6.68;2.63;;;4.80;99.90;;;;;;4982365;28;20478;-81
2023/04/14 06:06:22;;;;;;;12.32;2.97;;;4.90;99.90;;;;;;4995243;28;20136;-81
2023/04/14 06:09:08;;;;;;;14.23;3.28;;;5.00;99.90;;;;;;4980476;28;20089;-81
2023/04/14 06:11:55;;;;;;;8.35;2.70;;;5.10;99.90;;;;;;4994702;28;20053;-81
2023/04/14 06:14:41;;;;;;;17.05;3.00;;;5.20;99.90;;;;;;4995029;28;20805;-81
2023/04/14 06:17:27;;;;;;;7.95;2.35;;;5.40;99.90;;;;;;4994488;28;20549;-81
2023/04/14 06:20:13;;;;;;;9.27;2.65;;;5.50;99.90;;;;;;4992701;28;20054;-81
2023/04/14 06:22:59;;;;;;;9.63;2.83;;;5.60;99.90;;;;;;4981492;28;20046;-81
2023/04/14 06:25:46;;;;;;;10.13;2.53;;;5.80;99.90;;;;;;4994165;28;20502;-81
2023/04/14 06:28:34;;;;;;;9.98;2.78;;;5.90;99.90;;;;;;4994303;28;20752;-81
2023/04/14 06:31:20;;;;;;;13.38;3.67;;;6.10;99.90;;;;;;5012325;28;20054;-81
2023/04/14 06:34:06;;;;;;;8.18;2.92;;;6.20;99.90;;;;;;4993758;28;20078;-81
2023/04/14 06:36:52;;;;;;;14.02;4.30;;;6.40;99.90;;;;;;4994984;28;20065;-81
2023/04/14 06:39:38;;;;;;;10.27;3.10;;;6.50;99.90;;;;;;4993568;28;20053;-81
2023/04/14 06:42:25;;;;;;;10.65;2.75;;;6.70;99.90;;;;;;4993238;28;20058;-81
2023/04/14 06:45:11;;;;;;;10.25;2.45;;;6.80;99.90;;;;;;5011048;28;20136;-81
2023/04/14 06:47:57;;;;;;;8.68;3.28;;;6.90;99.90;;;;;;4996878;28;20050;-81
2023/04/14 06:50:43;;;;;;;8.52;2.63;;;7.20;99.90;;;;;;4997501;28;20068;-81
2023/04/14 06:53:29;;;;;;;8.93;2.72;;;7.30;99.90;;;;;;5012208;28;20049;-81
2023/04/14 06:56:15;;;;;;;8.85;2.83;;;7.40;99.90;;;;;;4993038;28;20050;-81
2023/04/14 06:59:01;;;;;;;7.45;2.75;;;7.50;99.90;;;;;;5012049;28;20054;-81
2023/04/14 07:01:47;;;;;;;6.57;2.60;;;7.70;99.90;;;;;;4992601;28;20498;-81
2023/04/14 07:04:35;;;;;;;7.57;2.85;;;7.80;99.90;;;;;;5010665;28;20045;-81
2023/04/14 07:07:23;;;;;;;11.63;2.63;;;8.00;99.90;;;;;;4994124;28;20065;-81
2023/04/14 07:10:09;;;;;;;8.05;2.88;;;8.20;99.90;;;;;;4992989;28;20112;-81
2023/04/14 07:12:55;;;;;;;7.13;2.35;;;8.30;99.90;;;;;;5010409;28;20521;-81
2023/04/14 07:15:46;;;;;;;11.25;3.03;;;8.50;99.90;;;;;;5010853;28;20112;-81
2023/04/14 07:18:32;;;;;;;11.43;2.92;;;8.70;99.90;;;;;;4993059;28;20053;-81
2023/04/14 07:21:18;;;;;;;8.32;2.85;;;8.90;99.90;;;;;;5010298;28;20669;-81
2023/04/14 07:24:04;;;;;;;7.90;2.78;;;9.10;99.90;;;;;;4979807;28;20077;-81
2023/04/14 07:26:50;;;;;;;11.70;2.92;;;9.20;99.90;;;;;;4972040;28;20491;-81
2023/04/14 07:29:36;;;;;;;26.10;3.63;;;9.30;99.90;;;;;;4973552;28;20092;-81
2023/04/14 07:32:23;;;;;;;9.75;3.38;;;9.40;99.90;;;;;;4960983;28;20078;-81
2023/04/14 07:35:09;;;;;;;7.28;2.60;;;9.60;99.90;;;;;;4973668;28;20153;-81
2023/04/14 07:37:55;;;;;;;15.48;2.97;;;9.70;99.90;;;;;;4973433;28;20089;-81
2023/04/14 07:40:41;;;;;;;10.68;2.78;;;9.80;99.90;;;;;;4972679;28;20051;-81
2023/04/14 07:43:33;;;;;;;14.02;3.30;;;10.00;99.90;;;;;;4972548;28;20459;-81
2023/04/14 07:46:20;;;;;;;8.80;3.83;;;10.10;99.90;;;;;;4989247;28;20078;-81
2023/04/14 07:49:06;;;;;;;9.82;3.10;;;10.20;99.90;;;;;;4959451;28;20418;-81
2023/04/14 07:51:52;;;;;;;13.07;3.30;;;10.30;99.90;;;;;;4989561;28;20054;-80
2023/04/14 07:54:38;;;;;;;9.50;2.60;;;10.50;99.90;;;;;;4973063;28;20064;-80
2023/04/14 07:57:24;;;;;;;12.10;3.42;;;10.70;99.90;;;;;;4973544;28;20054;-80
2023/04/14 08:00:10;;;;;;;12.32;3.05;;;10.70;99.90;;;;;;4971510;28;20069;-80
2023/04/14 08:02:56;;;;;;;11.20;3.00;;;10.90;99.90;;;;;;4972852;28;20537;-80
2023/04/14 08:05:43;;;;;;;9.57;2.83;;;11.00;99.90;;;;;;4960081;28;20060;-80
2023/04/14 08:08:29;;;;;;;8.35;2.97;;;11.10;99.90;;;;;;4972485;28;20058;-80
2023/04/14 08:11:15;;;;;;;13.25;3.22;;;11.30;99.90;;;;;;4972305;28;20062;-80
2023/04/14 08:14:00;;;;;;;9.40;3.50;;;11.50;99.90;;;;;;4960082;28;20510;-80
2023/04/14 08:16:47;;;;;;;9.73;2.60;;;11.60;99.90;;;;;;4973309;28;20454;-80
2023/04/14 08:19:33;;;;;;;10.88;3.15;;;11.80;99.90;;;;;;4989439;28;20054;-80
2023/04/14 08:22:20;;;;;;;11.43;2.53;;;11.90;99.90;;;;;;4975606;28;20089;-81
2023/04/14 08:25:06;;;;;;;8.55;2.47;;;11.90;99.90;;;;;;5002052;28;20077;-80
2023/04/14 08:27:52;;;;;;;11.50;2.90;;;12.00;99.90;;;;;;4996181;28;20046;-80
2023/04/14 08:30:39;;;;;;;11.05;2.75;;;12.10;99.90;;;;;;4996081;28;20598;-80
2023/04/14 08:33:25;;;;;;;13.93;2.78;;;12.30;99.90;;;;;;4996480;28;20054;-80
2023/04/14 08:36:11;;;;;;;11.93;3.63;;;12.50;99.90;;;;;;4995215;28;20649;-80
2023/04/14 08:39:00;;;;;;;12.15;3.28;;;12.60;99.90;;;;;;4996556;28;20120;-80
2023/04/14 08:41:49;;;;;;;10.80;2.97;;;12.80;99.90;;;;;;4999461;28;20065;-81
2023/04/14 08:44:36;;;;;;;18.70;4.00;;;12.80;99.90;;;;;;4983752;28;20637;-80
2023/04/14 08:47:25;;;;;;;12.35;3.40;;;12.90;99.90;;;;;;5014534;28;20136;-80
2023/04/14 08:50:17;;;;;;;11.32;2.85;;;13.10;99.90;;;;;;5013672;28;20065;-80
2023/04/14 08:53:07;;;;;;;13.07;2.97;;;13.30;99.90;;;;;;5012982;28;20049;-80
2023/04/14 08:55:55;;;;;;;8.40;2.58;;;13.40;99.90;;;;;;5013755;28;20042;-81
2023/04/14 08:58:41;;;;;;;11.15;3.20;;;13.50;99.90;;;;;;4995456;28;20042;-80
2023/04/14 09:01:28;;;;;;;9.82;2.72;;;13.60;99.90;;;;;;4995320;28;20089;-81
2023/04/14 09:04:16;;;;;;;12.80;3.28;;;13.70;99.90;;;;;;5013365;28;20090;-81
2023/04/14 09:07:03;;;;;;;10.98;2.85;;;13.70;99.90;;;;;;4994998;28;20100;-80
2023/04/14 09:09:49;;;;;;;12.10;3.63;;;13.90;99.90;;;;;;4995684;28;20046;-80
2023/04/14 09:12:37;;;;;;;12.63;2.90;;;13.90;99.30;;;;;;5012789;28;20383;-80
2023/04/14 09:15:26;;;;;;;10.63;2.20;;;14.00;99.40;;;;;;5010768;28;20406;-80
2023/04/14 09:18:12;;;;;;;12.32;2.95;;;14.20;99.10;;;;;;5011886;28;20133;-80
2023/04/14 09:20:58;;;;;;;10.60;3.47;;;14.30;98.60;;;;;;5012002;28;20148;-81
2023/04/14 09:23:45;;;;;;;7.90;2.28;;;14.30;98.10;;;;;;4995566;28;20524;-81
2023/04/14 09:26:31;;;;;;;6.85;2.28;;;14.40;97.20;;;;;;4994533;28;20506;-80
2023/04/14 09:29:17;;;;;;;4.53;1.52;;;14.50;97.20;;;;;;4995288;28;20065;-81
2023/04/14 09:32:05;;;;;;;10.57;2.40;;;14.60;96.40;;;;;;4994878;28;20057;-81
2023/04/14 09:34:52;;;;;;;8.65;2.53;;;14.70;96.40;;;;;;5013134;28;20081;-80
2023/04/14 09:37:47;;;;;;;9.25;2.08;;;14.90;96.60;;;;;;4998863;28;20085;-81
2023/04/14 09:40:33;;;;;;;11.23;1.93;;;14.60;93.20;;;;;;4982027;28;20058;-81
2023/04/14 09:43:24;;;;;;;7.07;1.60;;;14.60;94.30;;;;;;4993917;28;20466;-80
2023/04/14 09:46:11;;;;;;;10.18;2.70;;;14.70;94.00;;;;;;4995443;28;20046;-81
2023/04/14 09:48:58;;;;;;;7.78;1.90;;;14.50;94.40;;;;;;4994124;28;20065;-81
2023/04/14 09:51:48;;;;;;;7.20;2.53;;;14.60;94.30;;;;;;4994894;28;20057;-81
2023/04/14 09:54:34;;;;;;;8.57;2.13;;;14.80;94.30;;;;;;4995421;28;20406;-81
2023/04/14 09:57:25;;;;;;;8.25;1.80;;;15.10;94.50;;;;;;5011862;28;20405;-81
2023/04/14 10:00:22;;;;;;;12.18;2.45;;;15.30;94.30;;;;;;5012613;28;20058;-80
2023/04/14 10:03:09;;;;;;;12.68;2.13;;;15.60;94.00;;;;;;4981899;28;20145;-81
2023/04/14 10:05:56;;;;;;;9.32;2.13;;;15.50;94.10;;;;;;4994267;28;20058;-81
2023/04/14 10:08:45;;;;;;;8.25;1.92;;;16.00;94.70;;;;;;4982375;28;20573;-81
2023/04/14 10:11:32;;;;;;;7.28;1.75;;;16.20;93.40;;;;;;5013208;28;20092;-80
2023/04/14 10:14:18;;;;;;;11.85;2.00;;;16.30;92.70;;;;;;4994430;28;20145;-80
2023/04/14 10:17:05;;;;;;;14.75;2.30;;;16.40;92.30;;;;;;4994192;28;20460;-81
2023/04/14 10:19:51;;;;;;;9.70;2.88;;;16.80;92.10;;;;;;4998455;28;20192;-81
2023/04/14 10:22:38;;;;;;;6.63;2.45;;;16.80;91.30;;;;;;4982278;28;20061;-81
2023/04/14 10:25:26;;;;;;;7.47;2.17;;;16.60;91.20;;;;;;4994779;28;20058;-81
2023/04/14 10:28:13;;;;;;;9.77;2.40;;;16.60;91.70;;;;;;4979596;28;20065;-80
2023/04/14 10:31:01;;;;;;;9.02;2.75;;;17.00;91.70;;;;;;4994172;28;20068;-81
2023/04/14 10:33:47;;;;;;;11.85;2.15;;;16.50;90.90;;;;;;4980105;28;20467;-81
2023/04/14 10:36:35;;;;;;;11.60;2.40;;;16.30;91.20;;;;;;4993147;28;20108;-81
2023/04/14 10:39:23;;;;;;;8.23;1.98;;;16.60;91.20;;;;;;4994591;28;20054;-80
2023/04/14 10:42:09;;;;;;;13.70;2.63;;;16.80;90.70;;;;;;5010569;28;20725;-81
2023/04/14 10:45:06;;;;;;;6.97;2.00;;;16.90;89.80;;;;;;5009784;28;20104;-81
2023/04/14 10:47:55;;;;;;;9.73;2.28;;;17.40;89.70;;;;;;4992842;28;20052;-81
2023/04/14 10:50:46;;;;;;;9.07;2.33;;;17.80;88.70;;;;;;4994503;28;20135;-81
2023/04/14 10:53:45;;;;;;;10.23;2.10;;;17.90;85.30;;;;;;4994358;28;20399;-81
2023/04/14 10:56:32;;;;;;;9.93;2.55;;;18.30;84.70;;;;;;5011295;28;20050;-81
2023/04/14 10:59:19;;;;;;;5.78;2.22;;;18.50;84.90;;;;;;4980028;28;20119;-80
2023/04/14 11:02:30;;;;;;;9.73;2.80;;;19.00;85.30;;;;;;4992849;28;20140;-81
2023/04/14 11:05:16;;;;;;;10.65;1.92;;;19.30;81.70;;;;;;4994116;28;20064;-81
2023/04/14 11:08:35;;;;;;;10.45;2.20;;;19.20;82.00;;;;;;5010142;28;20409;-81
2023/04/14 11:11:27;;;;;;;12.57;3.55;;;18.80;77.20;;;;;;5011929;28;20050;-81
2023/04/14 11:14:14;;;;;;;7.95;2.33;;;18.70;79.90;;;;;;4993013;28;20046;-81
2023/04/14 11:17:02;;;;;;;11.95;2.53;;;18.30;80.70;;;;;;4992923;28;20086;-81
2023/04/14 11:19:52;;;;;;;8.15;1.73;;;17.70;77.60;;;;;;4993299;28;20050;-81
2023/04/14 11:22:40;;;;;;;10.25;2.20;;;17.50;79.30;;;;;;4979306;28;20147;-81
2023/04/14 11:25:26;;;;;;;6.63;1.80;;;17.10;79.70;;;;;;4992372;28;20120;-81
2023/04/14 11:28:12;;;;;;;8.50;1.70;;;16.80;80.80;;;;;;5010300;28;20556;-81
2023/04/14 11:31:00;;;;;;;13.00;1.80;;;16.50;81.50;;;;;;4991999;28;20740;-81
2023/04/14 11:33:46;;;;;;;9.80;2.05;;;16.80;80.60;;;;;;4992219;28;20066;-81
2023/04/14 11:36:35;;;;;;;7.40;2.03;;;16.90;82.20;;;;;;4994540;28;20054;-81
2023/04/14 11:39:22;;;;;;;12.27;1.92;;;16.80;81.50;;;;;;5011343;28;20135;-81
2023/04/14 11:42:08;;;;;;;8.93;1.70;;;17.00;82.80;;;;;;4993561;28;20094;-81
2023/04/14 11:44:57;;;;;;;13.27;2.20;;;17.60;82.50;;;;;;4993843;28;20050;-81
2023/04/14 11:47:58;;;;;;;9.88;1.83;;;18.30;82.00;;;;;;4991817;28;20506;-81
2023/04/14 11:50:46;;;;;;;5.70;1.45;;;19.10;82.00;;;;;;4993113;28;20638;-81
2023/04/14 11:53:33;;;;;;;8.07;1.83;;;19.90;79.10;;;;;;4992208;28;20399;-81
2023/04/14 11:56:20;;;;;;;9.18;2.15;;;20.40;73.40;;;;;;5008946;28;20054;-81
2023/04/14 11:59:06;;;;;;;7.28;1.90;;;20.50;70.30;;;;;;5010692;28;20053;-81
2023/04/14 12:01:52;;;;;;;8.38;2.10;;;20.50;69.60;;;;;;4979913;28;20058;-81
2023/04/14 12:04:39;;;;;;;10.55;1.80;;;19.90;67.80;;;;;;4980585;28;20416;-82
2023/04/14 12:07:28;;;;;;;6.00;2.33;;;20.10;68.40;;;;;;4992949;28;20192;-81
2023/04/14 12:10:15;;;;;;;8.38;2.50;;;20.10;69.40;;;;;;5008763;28;20057;-81
2023/04/14 12:13:07;;;;;;;7.90;2.00;;;20.10;68.90;;;;;;4996626;28;20837;-81
2023/04/14 12:16:19;;;;;;;7.47;1.95;;;19.20;66.90;;;;;;5007911;28;20089;-82
2023/04/14 12:19:06;;;;;;;10.10;1.98;;;18.40;68.60;;;;;;4993395;28;20844;-82
2023/04/14 12:21:52;;;;;;;12.27;2.20;;;18.50;72.30;;;;;;4991547;28;20093;-81
2023/04/14 12:24:39;;;;;;;9.52;1.80;;;19.60;72.30;;;;;;4992474;28;20089;-81
2023/04/14 12:27:26;;;;;;;7.80;2.05;;;20.70;69.00;;;;;;4991314;28;20085;-81
2023/04/14 12:30:13;;;;;;;9.43;2.13;;;20.40;66.00;;;;;;4993285;28;20090;-81
2023/04/14 12:33:05;;;;;;;8.23;2.25;;;19.80;66.60;;;;;;4993234;28;20145;-81
2023/04/14 12:35:51;;;;;;;14.32;2.35;;;19.60;66.40;;;;;;4991954;28;20062;-81
2023/04/14 12:38:38;;;;;;;7.30;1.45;;;20.30;68.90;;;;;;4993144;28;20066;-82
2023/04/14 12:41:25;;;;;;;8.82;2.42;;;21.10;66.10;;;;;;4993033;28;20049;-81
2023/04/14 12:44:14;;;;;;;8.57;1.88;;;21.00;64.20;;;;;;4991739;28;20057;-81
2023/04/14 12:47:00;;;;;;;12.65;2.08;;;20.60;62.50;;;;;;4992470;28;20054;-81
2023/04/14 12:49:46;;;;;;;7.72;1.70;;;19.80;62.80;;;;;;4993091;28;20065;-82
2023/04/14 12:52:39;;;;;;;9.05;1.70;;;19.60;64.40;;;;;;4991056;28;20054;-82
2023/04/14 12:55:27;;;;;;;12.05;3.65;;;19.50;62.30;;;;;;4991276;28;20058;-83
2023/04/14 12:58:13;;;;;;;9.23;2.78;;;19.40;64.50;;;;;;5010656;28;20054;-83
2023/04/14 13:00:59;;;;;;;18.27;1.92;;;19.40;66.00;;;;;;5006849;28;20506;-82
2023/04/14 13:03:50;;;;;;;8.50;2.13;;;20.20;65.60;;;;;;4990369;28;20131;-82
2023/04/14 13:06:37;;;;;;;8.07;1.40;;;21.20;61.70;;;;;;5010676;28;20058;-82
2023/04/14 13:09:23;;;;;;;7.80;1.75;;;20.60;60.70;;;;;;4995402;28;20140;-82
2023/04/14 13:12:09;;;;;;;9.40;3.40;;;20.10;60.80;;;;;;5000586;28;20465;-83
2023/04/14 13:14:56;;;;;;;8.35;1.60;;;20.10;61.50;;;;;;5012645;28;20057;-82
2023/04/14 13:17:41;;;;;;;6.68;2.00;;;19.40;62.30;;;;;;4996226;28;20548;-82
2023/04/14 13:20:29;;;;;;;7.68;2.00;;;19.30;64.40;;;;;;4982451;28;20050;-82
2023/04/14 13:23:15;;;;;;;11.57;1.90;;;19.80;62.90;;;;;;4996141;28;20085;-82
2023/04/14 13:26:01;;;;;;;7.78;2.40;;;20.70;59.70;;;;;;4994083;28;20176;-82
2023/04/14 13:28:49;;;;;;;7.72;1.52;;;20.20;57.70;;;;;;4998716;28;20046;-81
2023/04/14 13:31:35;;;;;;;8.40;1.80;;;21.40;58.90;;;;;;5013771;28;20085;-82
2023/04/14 13:34:21;;;;;;;11.98;2.67;;;23.70;59.70;;;;;;4994920;28;20073;-81
2023/04/14 13:37:07;;;;;;;10.02;2.78;;;25.30;59.90;;;;;;4994194;28;20494;-82
2023/04/14 13:39:53;;;;;;;13.27;3.75;;;26.10;58.90;;;;;;5012037;28;20046;-82
2023/04/14 13:42:39;;;;;;;9.90;2.75;;;26.60;58.80;;;;;;4994095;28;20132;-83
2023/04/14 13:45:25;;;;;;;17.88;3.25;;;26.80;58.30;;;;;;5010327;28;20050;-81
2023/04/14 13:48:12;;;;;;;12.93;3.17;;;27.00;56.70;;;;;;4998810;28;20049;-83
2023/04/14 13:50:58;;;;;;;14.85;3.33;;;26.70;54.90;;;;;;5013374;28;20058;-82
2023/04/14 13:53:45;;;;;;;13.60;3.47;;;26.70;55.40;;;;;;4994023;28;20058;-81
2023/04/14 13:56:31;;;;;;;17.73;3.88;;;26.10;54.80;;;;;;4993858;28;20054;-81
2023/04/14 13:59:17;;;;;;;12.10;3.00;;;26.20;55.50;;;;;;4980875;28;20045;-82
2023/04/14 14:02:03;;;;;;;11.20;2.95;;;26.80;55.90;;;;;;4993958;28;20383;-82
2023/04/14 14:04:49;;;;;;;12.50;3.40;;;27.10;54.40;;;;;;4994066;28;20064;-82
2023/04/14 14:07:35;;;;;;;13.52;3.60;;;26.50;55.90;;;;;;5011333;28;20478;-82
2023/04/14 14:10:21;;;;;;;15.30;3.30;;;27.30;55.90;;;;;;4993524;28;20501;-82
2023/04/14 14:13:08;;;;;;;11.13;3.33;;;28.40;54.50;;;;;;4993367;28;20054;-82
2023/04/14 14:15:54;;;;;;;13.55;4.53;;;29.30;52.30;;;;;;5012776;28;20050;-82
2023/04/14 14:18:40;;;;;;;15.75;3.72;;;29.70;50.90;;;;;;5010481;28;20493;-82
2023/04/14 14:21:26;;;;;;;9.25;4.03;;;29.80;50.60;;;;;;4993749;28;20089;-83
2023/04/14 14:24:12;;;;;;;11.60;4.55;;;29.40;50.80;;;;;;4994777;28;20046;-83
2023/04/14 14:26:58;;;;;;;10.18;3.75;;;29.40;50.30;;;;;;4993161;28;20062;-82
2023/04/14 14:29:44;;;;;;;12.07;3.97;;;27.90;50.70;;;;;;4993526;28;20049;-82
2023/04/14 14:32:31;;;;;;;13.63;4.53;;;26.20;52.40;;;;;;4993091;28;20166;-82